AUA147 LOWW-LSZH
Flight info
| Callsign | AUA147 |
|---|---|
| Flight time | 1h 0m |
| Altitude | 30000 |
| Route | SOVIL1C/29 SOVIL DCT SITNI DCT BAGSI DCT MATIG DCT TRAUN DCT KONIN L856 NEGRA |
| Aircraft | A320/M-SDE3FGHIRWY/LB1 |
Departure
| Time | 2026-04-26 18:16 |
|---|---|
| Airport | Vienna International Airport (LOWW) |
Arrival
| Time | 2026-04-26 19:16 |
|---|---|
| Airport | Zürich Airport (LSZH) |
| Time | Latitude | Longitude | Altitude | Speed | Heading |
|---|---|---|---|---|---|
| 2026-04-26 17:42 | 48.11764 | 16.56627 | 609 ft | 0 kts | 26° |
| 2026-04-26 18:07 | 48.11759 | 16.56624 | 624 ft | 4 kts | 26° |
| 2026-04-26 18:08 | 48.11728 | 16.56597 | 617 ft | 4 kts | 35° |
| 2026-04-26 18:08 | 48.11708 | 16.56572 | 622 ft | 4 kts | 57° |
| 2026-04-26 18:08 | 48.11702 | 16.56542 | 616 ft | 2 kts | 115° |
| 2026-04-26 18:08 | 48.11702 | 16.56539 | 617 ft | 0 kts | 116° |
| 2026-04-26 18:11 | 48.11700 | 16.56545 | 613 ft | 4 kts | 116° |
| 2026-04-26 18:11 | 48.11675 | 16.56624 | 613 ft | 10 kts | 115° |
| 2026-04-26 18:11 | 48.11647 | 16.56712 | 621 ft | 9 kts | 115° |
| 2026-04-26 18:11 | 48.11621 | 16.56792 | 616 ft | 11 kts | 115° |
| 2026-04-26 18:12 | 48.11573 | 16.56939 | 612 ft | 17 kts | 117° |
| 2026-04-26 18:12 | 48.11521 | 16.57095 | 617 ft | 16 kts | 116° |
| 2026-04-26 18:12 | 48.11476 | 16.57236 | 617 ft | 14 kts | 115° |
| 2026-04-26 18:12 | 48.11435 | 16.57358 | 615 ft | 11 kts | 116° |
| 2026-04-26 18:13 | 48.11383 | 16.57382 | 613 ft | 8 kts | 206° |
| 2026-04-26 18:13 | 48.11333 | 16.57346 | 622 ft | 8 kts | 205° |
| 2026-04-26 18:13 | 48.11265 | 16.57296 | 618 ft | 11 kts | 206° |
| 2026-04-26 18:13 | 48.11221 | 16.57265 | 618 ft | 10 kts | 206° |
| 2026-04-26 18:14 | 48.11143 | 16.57208 | 616 ft | 8 kts | 206° |
| 2026-04-26 18:14 | 48.11093 | 16.57173 | 613 ft | 7 kts | 206° |
| 2026-04-26 18:14 | 48.11051 | 16.57142 | 621 ft | 6 kts | 206° |
| 2026-04-26 18:14 | 48.11048 | 16.57119 | 617 ft | 0 kts | 297° |
| 2026-04-26 18:15 | 48.11050 | 16.57114 | 616 ft | 4 kts | 297° |
| 2026-04-26 18:15 | 48.11134 | 16.56868 | 619 ft | 62 kts | 296° |
| 2026-04-26 18:15 | 48.11427 | 16.55962 | 619 ft | 124 kts | 296° |
| 2026-04-26 18:15 | 48.11879 | 16.54573 | 640 ft | 169 kts | 296° |
| 2026-04-26 18:16 | 48.12381 | 16.52989 | 1295 ft | 169 kts | 290° |
| 2026-04-26 18:16 | 48.11698 | 16.49384 | 2232 ft | 211 kts | 240° |
| 2026-04-26 18:16 | 48.10855 | 16.47432 | 2548 ft | 236 kts | 240° |
| 2026-04-26 18:17 | 48.09913 | 16.45263 | 2992 ft | 261 kts | 237° |
| 2026-04-26 18:17 | 48.08788 | 16.43059 | 3800 ft | 270 kts | 234° |
| 2026-04-26 18:17 | 48.07602 | 16.40855 | 4626 ft | 274 kts | 235° |
| 2026-04-26 18:17 | 48.06412 | 16.38631 | 4917 ft | 273 kts | 236° |
| 2026-04-26 18:18 | 48.05248 | 16.36407 | 4981 ft | 271 kts | 234° |
| 2026-04-26 18:18 | 48.04162 | 16.34105 | 5110 ft | 272 kts | 245° |
| 2026-04-26 18:18 | 48.03518 | 16.31490 | 6157 ft | 264 kts | 261° |
| 2026-04-26 18:18 | 48.03341 | 16.28813 | 7264 ft | 256 kts | 273° |
| 2026-04-26 18:19 | 48.03382 | 16.26154 | 8191 ft | 257 kts | 274° |
| 2026-04-26 18:19 | 48.03432 | 16.23474 | 9053 ft | 259 kts | 274° |
| 2026-04-26 18:19 | 48.03485 | 16.20752 | 9875 ft | 264 kts | 274° |
| 2026-04-26 18:19 | 48.03537 | 16.17955 | 10483 ft | 277 kts | 274° |
| 2026-04-26 18:20 | 48.03592 | 16.14954 | 10721 ft | 301 kts | 274° |
| 2026-04-26 18:20 | 48.03648 | 16.11710 | 10958 ft | 323 kts | 274° |
| 2026-04-26 18:20 | 48.03705 | 16.08301 | 11493 ft | 332 kts | 274° |
| 2026-04-26 18:20 | 48.03723 | 16.07181 | 11709 ft | 334 kts | 274° |
| 2026-04-26 18:21 | 48.03815 | 16.01293 | 12857 ft | 342 kts | 274° |
| 2026-04-26 18:21 | 48.03871 | 15.97723 | 13552 ft | 346 kts | 274° |
| 2026-04-26 18:21 | 48.03925 | 15.94104 | 14218 ft | 350 kts | 274° |
| 2026-04-26 18:21 | 48.03976 | 15.90444 | 14813 ft | 354 kts | 274° |
| 2026-04-26 18:22 | 48.04028 | 15.86748 | 15448 ft | 357 kts | 274° |
| 2026-04-26 18:22 | 48.04082 | 15.83024 | 16038 ft | 361 kts | 273° |
| 2026-04-26 18:22 | 48.04136 | 15.79253 | 16644 ft | 364 kts | 273° |
| 2026-04-26 18:22 | 48.04189 | 15.75449 | 17248 ft | 367 kts | 273° |
| 2026-04-26 18:23 | 48.04240 | 15.71619 | 17829 ft | 371 kts | 273° |
| 2026-04-26 18:23 | 48.04291 | 15.67748 | 18408 ft | 374 kts | 273° |
| 2026-04-26 18:23 | 48.04343 | 15.63841 | 18920 ft | 377 kts | 273° |
| 2026-04-26 18:23 | 48.04394 | 15.59905 | 19428 ft | 380 kts | 273° |
| 2026-04-26 18:24 | 48.04445 | 15.55943 | 19945 ft | 383 kts | 272° |
| 2026-04-26 18:24 | 48.04492 | 15.51956 | 20461 ft | 385 kts | 272° |
| 2026-04-26 18:24 | 48.04533 | 15.47942 | 20955 ft | 388 kts | 272° |
| 2026-04-26 18:24 | 48.04571 | 15.43899 | 21447 ft | 390 kts | 272° |
| 2026-04-26 18:25 | 48.04612 | 15.39829 | 21914 ft | 393 kts | 272° |
| 2026-04-26 18:25 | 48.04641 | 15.37117 | 22221 ft | 395 kts | 272° |
| 2026-04-26 18:25 | 48.04695 | 15.33009 | 22670 ft | 397 kts | 272° |
| 2026-04-26 18:25 | 48.04763 | 15.28859 | 23122 ft | 400 kts | 272° |
| 2026-04-26 18:26 | 48.04834 | 15.24692 | 23585 ft | 402 kts | 272° |
| 2026-04-26 18:26 | 48.04906 | 15.20499 | 23995 ft | 405 kts | 272° |
| 2026-04-26 18:26 | 48.04979 | 15.16274 | 24379 ft | 407 kts | 272° |
| 2026-04-26 18:26 | 48.05048 | 15.12050 | 24754 ft | 408 kts | 272° |
| 2026-04-26 18:27 | 48.05113 | 15.07802 | 25139 ft | 410 kts | 272° |
| 2026-04-26 18:27 | 48.05174 | 15.03529 | 25525 ft | 411 kts | 271° |
| 2026-04-26 18:27 | 48.05230 | 14.99247 | 25887 ft | 413 kts | 271° |
| 2026-04-26 18:27 | 48.05284 | 14.94998 | 26248 ft | 415 kts | 271° |
| 2026-04-26 18:28 | 48.05337 | 14.90689 | 26615 ft | 416 kts | 271° |
| 2026-04-26 18:28 | 48.05390 | 14.86297 | 26984 ft | 418 kts | 271° |
| 2026-04-26 18:28 | 48.05442 | 14.81947 | 27341 ft | 419 kts | 271° |
| 2026-04-26 18:28 | 48.05488 | 14.77581 | 27677 ft | 421 kts | 271° |
| 2026-04-26 18:29 | 48.05525 | 14.73200 | 28010 ft | 422 kts | 271° |
| 2026-04-26 18:29 | 48.05554 | 14.68803 | 28333 ft | 424 kts | 271° |
| 2026-04-26 18:29 | 48.05583 | 14.64389 | 28642 ft | 425 kts | 271° |
| 2026-04-26 18:29 | 48.05613 | 14.59961 | 28970 ft | 427 kts | 271° |
| 2026-04-26 18:30 | 48.05644 | 14.55522 | 29287 ft | 428 kts | 271° |
| 2026-04-26 18:30 | 48.05674 | 14.51073 | 29618 ft | 428 kts | 271° |
| 2026-04-26 18:30 | 48.05700 | 14.46689 | 30048 ft | 427 kts | 271° |
| 2026-04-26 18:30 | 48.05723 | 14.42246 | 30196 ft | 424 kts | 271° |
| 2026-04-26 18:31 | 48.05762 | 14.33438 | 30213 ft | 419 kts | 271° |
| 2026-04-26 18:31 | 48.05806 | 14.24803 | 30215 ft | 419 kts | 271° |
| 2026-04-26 18:32 | 48.05839 | 14.16104 | 30213 ft | 418 kts | 271° |
| 2026-04-26 18:32 | 48.05862 | 14.07428 | 30214 ft | 416 kts | 271° |
| 2026-04-26 18:33 | 48.05877 | 13.98779 | 30202 ft | 416 kts | 270° |
| 2026-04-26 18:33 | 48.05889 | 13.90137 | 30199 ft | 416 kts | 270° |
| 2026-04-26 18:34 | 48.05894 | 13.81483 | 30198 ft | 416 kts | 270° |
| 2026-04-26 18:34 | 48.05888 | 13.72849 | 30193 ft | 416 kts | 270° |
| 2026-04-26 18:35 | 48.05881 | 13.64189 | 30184 ft | 417 kts | 270° |
| 2026-04-26 18:35 | 48.05860 | 13.55512 | 30190 ft | 418 kts | 269° |
| 2026-04-26 18:36 | 48.05240 | 13.46874 | 30182 ft | 419 kts | 263° |
| 2026-04-26 18:36 | 48.04506 | 13.38225 | 30184 ft | 419 kts | 263° |
| 2026-04-26 18:37 | 48.03794 | 13.29592 | 30188 ft | 419 kts | 264° |
| 2026-04-26 18:37 | 48.03175 | 13.20931 | 30186 ft | 419 kts | 264° |
| 2026-04-26 18:38 | 48.02590 | 13.12253 | 30191 ft | 420 kts | 264° |
| 2026-04-26 18:38 | 48.01986 | 13.03577 | 30192 ft | 420 kts | 264° |
| 2026-04-26 18:39 | 48.01370 | 12.94909 | 30191 ft | 420 kts | 264° |
| 2026-04-26 18:39 | 48.00740 | 12.86247 | 30192 ft | 420 kts | 264° |
| 2026-04-26 18:40 | 48.00104 | 12.77584 | 30199 ft | 419 kts | 263° |
| 2026-04-26 18:40 | 47.99467 | 12.68925 | 30199 ft | 419 kts | 263° |
| 2026-04-26 18:41 | 47.98821 | 12.60284 | 30201 ft | 419 kts | 263° |
| 2026-04-26 18:41 | 47.98164 | 12.51654 | 30199 ft | 419 kts | 263° |
| 2026-04-26 18:42 | 47.97501 | 12.43014 | 30178 ft | 419 kts | 263° |
| 2026-04-26 18:42 | 47.96836 | 12.34359 | 30182 ft | 420 kts | 263° |
| 2026-04-26 18:43 | 47.96165 | 12.25695 | 30185 ft | 421 kts | 263° |
| 2026-04-26 18:43 | 47.95488 | 12.17026 | 30188 ft | 421 kts | 263° |
| 2026-04-26 18:44 | 47.94800 | 12.08341 | 30191 ft | 421 kts | 262° |
| 2026-04-26 18:44 | 47.94099 | 11.99666 | 30193 ft | 421 kts | 262° |
| 2026-04-26 18:45 | 47.93401 | 11.90992 | 30191 ft | 421 kts | 262° |
| 2026-04-26 18:45 | 47.92693 | 11.82358 | 30199 ft | 421 kts | 262° |
| 2026-04-26 18:46 | 47.91977 | 11.73683 | 30197 ft | 420 kts | 262° |
| 2026-04-26 18:46 | 47.91260 | 11.65030 | 30208 ft | 420 kts | 262° |
| 2026-04-26 18:47 | 47.90536 | 11.56388 | 30210 ft | 420 kts | 262° |
| 2026-04-26 18:47 | 47.89803 | 11.47809 | 30209 ft | 420 kts | 262° |
| 2026-04-26 18:48 | 47.89059 | 11.39187 | 30212 ft | 420 kts | 262° |
| 2026-04-26 18:48 | 47.88309 | 11.30509 | 30206 ft | 419 kts | 262° |
| 2026-04-26 18:49 | 47.87569 | 11.21954 | 30191 ft | 420 kts | 262° |
| 2026-04-26 18:49 | 47.86812 | 11.13316 | 30195 ft | 420 kts | 262° |
| 2026-04-26 18:50 | 47.86048 | 11.04679 | 30196 ft | 421 kts | 262° |
| 2026-04-26 18:50 | 47.85272 | 10.96026 | 30198 ft | 422 kts | 262° |
| 2026-04-26 18:51 | 47.84482 | 10.87355 | 30198 ft | 423 kts | 262° |
| 2026-04-26 18:51 | 47.83693 | 10.78673 | 30201 ft | 423 kts | 262° |
| 2026-04-26 18:52 | 47.82900 | 10.69987 | 30205 ft | 424 kts | 262° |
| 2026-04-26 18:52 | 47.82098 | 10.61298 | 30209 ft | 424 kts | 262° |
| 2026-04-26 18:53 | 47.81287 | 10.52591 | 30209 ft | 425 kts | 263° |
| 2026-04-26 18:53 | 47.80473 | 10.43935 | 30212 ft | 426 kts | 262° |
| 2026-04-26 18:54 | 47.79642 | 10.35202 | 30214 ft | 426 kts | 262° |
| 2026-04-26 18:54 | 47.79226 | 10.30840 | 30061 ft | 426 kts | 262° |
| 2026-04-26 18:54 | 47.78805 | 10.26451 | 29039 ft | 429 kts | 262° |
| 2026-04-26 18:55 | 47.78385 | 10.22092 | 28397 ft | 423 kts | 262° |
| 2026-04-26 18:55 | 47.77967 | 10.17791 | 27729 ft | 418 kts | 262° |
| 2026-04-26 18:55 | 47.77551 | 10.13532 | 27049 ft | 415 kts | 263° |
| 2026-04-26 18:55 | 47.77137 | 10.09298 | 26399 ft | 411 kts | 263° |
| 2026-04-26 18:56 | 47.76725 | 10.05107 | 25753 ft | 408 kts | 263° |
| 2026-04-26 18:56 | 47.76316 | 10.00948 | 25122 ft | 405 kts | 263° |
| 2026-04-26 18:56 | 47.75909 | 9.96815 | 24470 ft | 402 kts | 263° |
| 2026-04-26 18:56 | 47.75503 | 9.92717 | 23859 ft | 399 kts | 263° |
| 2026-04-26 18:57 | 47.75099 | 9.88648 | 23175 ft | 396 kts | 263° |
| 2026-04-26 18:57 | 47.74834 | 9.85983 | 22800 ft | 393 kts | 263° |
| 2026-04-26 18:57 | 47.74302 | 9.80652 | 22027 ft | 386 kts | 263° |
| 2026-04-26 18:57 | 47.73906 | 9.76729 | 21485 ft | 382 kts | 263° |
| 2026-04-26 18:58 | 47.73512 | 9.72852 | 20961 ft | 377 kts | 263° |
| 2026-04-26 18:58 | 47.73122 | 9.69021 | 20459 ft | 373 kts | 263° |
| 2026-04-26 18:58 | 47.72863 | 9.65218 | 19996 ft | 371 kts | 269° |
| 2026-04-26 18:58 | 47.72769 | 9.61323 | 19667 ft | 381 kts | 269° |
| 2026-04-26 18:59 | 47.72663 | 9.57381 | 19303 ft | 382 kts | 268° |
| 2026-04-26 18:59 | 47.72548 | 9.53441 | 18937 ft | 381 kts | 268° |
| 2026-04-26 18:59 | 47.72430 | 9.49518 | 18567 ft | 379 kts | 268° |
| 2026-04-26 18:59 | 47.72099 | 9.45696 | 18174 ft | 378 kts | 258° |
| 2026-04-26 19:00 | 47.71247 | 9.41953 | 17801 ft | 379 kts | 247° |
| 2026-04-26 19:00 | 47.69929 | 9.38568 | 17432 ft | 380 kts | 236° |
| 2026-04-26 19:00 | 47.68277 | 9.35507 | 17079 ft | 379 kts | 233° |
| 2026-04-26 19:00 | 47.66610 | 9.32484 | 16715 ft | 378 kts | 233° |
| 2026-04-26 19:01 | 47.64950 | 9.29474 | 16348 ft | 376 kts | 232° |
| 2026-04-26 19:01 | 47.63308 | 9.26497 | 15977 ft | 374 kts | 232° |
| 2026-04-26 19:01 | 47.61652 | 9.23491 | 15628 ft | 373 kts | 233° |
| 2026-04-26 19:01 | 47.60175 | 9.20354 | 15268 ft | 370 kts | 243° |
| 2026-04-26 19:02 | 47.59139 | 9.16885 | 14908 ft | 367 kts | 253° |
| 2026-04-26 19:02 | 47.58565 | 9.13274 | 14565 ft | 364 kts | 261° |
| 2026-04-26 19:02 | 47.58117 | 9.09585 | 14210 ft | 363 kts | 261° |
| 2026-04-26 19:02 | 47.57974 | 9.08334 | 14089 ft | 363 kts | 263° |
| 2026-04-26 19:03 | 47.58071 | 9.02191 | 13474 ft | 359 kts | 281° |
| 2026-04-26 19:03 | 47.58782 | 8.98654 | 13123 ft | 358 kts | 291° |
| 2026-04-26 19:03 | 47.59720 | 8.95239 | 12772 ft | 357 kts | 291° |
| 2026-04-26 19:03 | 47.60648 | 8.91832 | 12428 ft | 356 kts | 291° |
| 2026-04-26 19:04 | 47.61568 | 8.88435 | 12083 ft | 354 kts | 291° |
| 2026-04-26 19:04 | 47.62386 | 8.85001 | 11732 ft | 353 kts | 283° |
| 2026-04-26 19:04 | 47.62716 | 8.81412 | 11394 ft | 352 kts | 271° |
| 2026-04-26 19:04 | 47.62507 | 8.77811 | 11046 ft | 349 kts | 259° |
| 2026-04-26 19:05 | 47.60907 | 8.71351 | 10778 ft | 321 kts | 248° |
| 2026-04-26 19:05 | 47.60060 | 8.68353 | 10653 ft | 309 kts | 248° |
| 2026-04-26 19:05 | 47.59276 | 8.65465 | 10529 ft | 297 kts | 254° |
| 2026-04-26 19:06 | 47.58996 | 8.62503 | 10331 ft | 287 kts | 274° |
| 2026-04-26 19:06 | 47.59193 | 8.60585 | 10279 ft | 284 kts | 285° |
| 2026-04-26 19:06 | 47.59998 | 8.57934 | 10155 ft | 284 kts | 304° |
| 2026-04-26 19:06 | 47.61324 | 8.55775 | 9861 ft | 283 kts | 317° |
| 2026-04-26 19:07 | 47.62777 | 8.53803 | 9593 ft | 283 kts | 317° |
| 2026-04-26 19:07 | 47.64225 | 8.51833 | 9340 ft | 282 kts | 317° |
| 2026-04-26 19:07 | 47.65668 | 8.49866 | 9103 ft | 281 kts | 317° |
| 2026-04-26 19:07 | 47.67103 | 8.47902 | 8858 ft | 280 kts | 317° |
| 2026-04-26 19:08 | 47.68529 | 8.45941 | 8624 ft | 279 kts | 317° |
| 2026-04-26 19:08 | 47.69952 | 8.43985 | 8387 ft | 279 kts | 317° |
| 2026-04-26 19:08 | 47.71378 | 8.42025 | 8123 ft | 280 kts | 317° |
| 2026-04-26 19:08 | 47.72797 | 8.40050 | 7849 ft | 279 kts | 314° |
| 2026-04-26 19:09 | 47.73791 | 8.37609 | 7587 ft | 278 kts | 286° |
| 2026-04-26 19:09 | 47.73889 | 8.34758 | 7168 ft | 278 kts | 256° |
| 2026-04-26 19:09 | 47.73037 | 8.32183 | 6855 ft | 276 kts | 229° |
| 2026-04-26 19:09 | 47.71741 | 8.30087 | 6569 ft | 274 kts | 226° |
| 2026-04-26 19:10 | 47.70400 | 8.28185 | 6293 ft | 266 kts | 210° |
| 2026-04-26 19:10 | 47.68704 | 8.27371 | 6073 ft | 252 kts | 178° |
| 2026-04-26 19:10 | 47.67062 | 8.27944 | 6022 ft | 233 kts | 148° |
| 2026-04-26 19:10 | 47.65817 | 8.29382 | 5993 ft | 222 kts | 135° |
| 2026-04-26 19:11 | 47.64719 | 8.30918 | 5778 ft | 219 kts | 134° |
| 2026-04-26 19:11 | 47.63613 | 8.32462 | 5514 ft | 219 kts | 135° |
| 2026-04-26 19:11 | 47.62498 | 8.34003 | 5233 ft | 219 kts | 135° |
| 2026-04-26 19:11 | 47.61384 | 8.35537 | 4936 ft | 219 kts | 134° |
| 2026-04-26 19:12 | 47.60280 | 8.37054 | 4642 ft | 212 kts | 134° |
| 2026-04-26 19:12 | 47.59215 | 8.38518 | 4361 ft | 205 kts | 134° |
| 2026-04-26 19:12 | 47.58165 | 8.39961 | 4098 ft | 203 kts | 133° |
| 2026-04-26 19:12 | 47.57134 | 8.41377 | 3821 ft | 199 kts | 133° |
| 2026-04-26 19:13 | 47.56140 | 8.42741 | 3582 ft | 189 kts | 133° |
| 2026-04-26 19:13 | 47.55201 | 8.44026 | 3293 ft | 179 kts | 133° |
| 2026-04-26 19:13 | 47.54302 | 8.45249 | 3024 ft | 172 kts | 133° |
| 2026-04-26 19:13 | 47.53454 | 8.46398 | 2913 ft | 159 kts | 133° |
| 2026-04-26 19:14 | 47.52657 | 8.47484 | 2636 ft | 155 kts | 133° |
| 2026-04-26 19:14 | 47.51888 | 8.48549 | 2417 ft | 148 kts | 133° |
| 2026-04-26 19:14 | 47.51139 | 8.49594 | 2192 ft | 148 kts | 134° |
| 2026-04-26 19:14 | 47.50634 | 8.50298 | 2067 ft | 148 kts | 135° |
| 2026-04-26 19:15 | 47.49612 | 8.51682 | 1837 ft | 149 kts | 135° |
| 2026-04-26 19:15 | 47.48836 | 8.52737 | 1630 ft | 149 kts | 135° |
| 2026-04-26 19:15 | 47.48090 | 8.53768 | 1424 ft | 146 kts | 136° |
| 2026-04-26 19:15 | 47.47393 | 8.54723 | 1388 ft | 110 kts | 138° |
| 2026-04-26 19:16 | 47.46959 | 8.55316 | 1389 ft | 61 kts | 138° |
| 2026-04-26 19:16 | 47.46720 | 8.55615 | 1399 ft | 37 kts | 152° |
| 2026-04-26 19:16 | 47.46482 | 8.55718 | 1399 ft | 31 kts | 165° |
| 2026-04-26 19:16 | 47.46360 | 8.55788 | 1404 ft | 17 kts | 139° |
| 2026-04-26 19:17 | 47.46274 | 8.55904 | 1406 ft | 17 kts | 138° |
| 2026-04-26 19:17 | 47.46187 | 8.56022 | 1412 ft | 16 kts | 136° |
| 2026-04-26 19:17 | 47.46111 | 8.56129 | 1408 ft | 16 kts | 136° |
| 2026-04-26 19:17 | 47.46028 | 8.56245 | 1410 ft | 17 kts | 136° |
| 2026-04-26 19:18 | 47.45929 | 8.56311 | 1413 ft | 16 kts | 184° |
| 2026-04-26 19:18 | 47.45816 | 8.56293 | 1415 ft | 16 kts | 186° |
| 2026-04-26 19:18 | 47.45708 | 8.56276 | 1414 ft | 17 kts | 186° |
| 2026-04-26 19:18 | 47.45621 | 8.56256 | 1413 ft | 7 kts | 214° |
| 2026-04-26 19:19 | 47.45618 | 8.56151 | 1411 ft | 16 kts | 275° |
| 2026-04-26 19:19 | 47.45633 | 8.55937 | 1412 ft | 26 kts | 276° |
| 2026-04-26 19:19 | 47.45655 | 8.55655 | 1405 ft | 29 kts | 276° |
| 2026-04-26 19:19 | 47.45674 | 8.55357 | 1400 ft | 22 kts | 273° |
| 2026-04-26 19:20 | 47.45668 | 8.55226 | 1405 ft | 10 kts | 234° |
| 2026-04-26 19:20 | 47.45608 | 8.55227 | 1408 ft | 18 kts | 156° |
| 2026-04-26 19:20 | 47.45426 | 8.55352 | 1406 ft | 22 kts | 154° |
| 2026-04-26 19:20 | 47.45284 | 8.55451 | 1403 ft | 23 kts | 155° |
| 2026-04-26 19:21 | 47.45132 | 8.55553 | 1405 ft | 25 kts | 155° |
| 2026-04-26 19:21 | 47.45026 | 8.55623 | 1406 ft | 26 kts | 157° |
| 2026-04-26 19:21 | 47.44828 | 8.55761 | 1400 ft | 23 kts | 155° |
| 2026-04-26 19:21 | 47.44681 | 8.55864 | 1394 ft | 23 kts | 154° |
| 2026-04-26 19:22 | 47.44553 | 8.55956 | 1397 ft | 19 kts | 155° |
| 2026-04-26 19:22 | 47.44454 | 8.56024 | 1399 ft | 9 kts | 155° |
| 2026-04-26 19:22 | 47.44407 | 8.56057 | 1406 ft | 6 kts | 154° |
| 2026-04-26 19:22 | 47.44373 | 8.56082 | 1404 ft | 5 kts | 151° |
| 2026-04-26 19:23 | 47.44332 | 8.56127 | 1405 ft | 10 kts | 136° |
| 2026-04-26 19:23 | 47.44302 | 8.56239 | 1403 ft | 13 kts | 89° |
| 2026-04-26 19:23 | 47.44330 | 8.56371 | 1404 ft | 14 kts | 66° |
| 2026-04-26 19:23 | 47.44375 | 8.56508 | 1405 ft | 15 kts | 64° |
| 2026-04-26 19:24 | 47.44442 | 8.56622 | 1401 ft | 15 kts | 5° |
| 2026-04-26 19:24 | 47.44540 | 8.56560 | 1402 ft | 12 kts | 334° |
| 2026-04-26 19:24 | 47.44589 | 8.56514 | 1407 ft | 1 kts | 343° |
| 2026-04-26 19:25 | 47.44590 | 8.56514 | 1407 ft | 0 kts | 343° |
| 2026-04-26 19:25 | 47.44592 | 8.56513 | 1408 ft | 2 kts | 343° |
| 2026-04-26 19:25 | 47.44612 | 8.56501 | 1404 ft | 6 kts | 335° |
| 2026-04-26 19:26 | 47.44637 | 8.56484 | 1404 ft | 2 kts | 334° |
| 2026-04-26 19:26 | 47.44644 | 8.56479 | 1404 ft | 0 kts | 334° |